D/T METAR WX W/DIR W/SPE G/SPE TEMP DEWP
19/03/19 20:50 EGPH 192050Z 26014G24KT 9999 SCT021 10/08 Q1022 W (260°) 16.1mph 27.6mph 10°C 8°C
19/03/19 20:20 EGPH 192020Z 26016KT 9999 SCT015 10/08 Q1022 W (260°) 18.4mph 10°C 8°C
19/03/19 19:50 EGPH 191950Z 25014KT 9999 BKN011 10/08 Q1021 WSW (250°) 16.1mph 10°C 8°C
19/03/19 19:20 EGPH 191920Z 25014KT 9999 BKN014 10/08 Q1021 WSW (250°) 16.1mph 10°C 8°C
19/03/19 18:50 EGPH 191850Z 26015KT 9999 SCT015 10/08 Q1021 W (260°) 17.3mph 10°C 8°C
19/03/19 18:20 EGPH 191820Z 26014KT 9999 SCT015 10/08 Q1021 W (260°) 16.1mph 10°C 8°C
19/03/19 17:50 EGPH 191750Z 26013G23KT 9999 BKN013 11/09 Q1021 W (260°) 15.0mph 26.5mph 11°C 9°C
19/03/19 17:20 EGPH 191720Z 26012KT 9999 BKN014 11/09 Q1020 W (260°) 13.8mph 11°C 9°C
19/03/19 16:20 EGPH 191620Z 24007KT 200V270 9999 BKN012 11/09 Q1020 WSW (240°) 8.1mph 11°C 9°C
19/03/19 15:50 EGPH 191550Z 24013KT 9999 7000SW VCSH BKN014 11/09 Q1020 VCSH WSW (240°) 15.0mph 11°C 9°C
19/03/19 15:20 EGPH 191520Z 24018KT 9999 7000SW VCSH BKN013 11/09 Q1020 VCSH WSW (240°) 20.7mph 11°C 9°C
19/03/19 14:50 EGPH 191450Z 23015KT 9999 6000SW VCSH BKN012 11/09 Q1019 VCSH SW (230°) 17.3mph 11°C 9°C
19/03/19 14:20 EGPH 191420Z 24013KT 9999 8000SW VCSH BKN013 11/09 Q1020 VCSH WSW (240°) 15.0mph 11°C 9°C
19/03/19 13:50 EGPH 191350Z 23014KT 9999 BKN018 11/08 Q1020 SW (230°) 16.1mph 11°C 8°C
19/03/19 13:20 EGPH 191320Z 23013KT 9999 BKN019 11/08 Q1019 SW (230°) 15.0mph 11°C 8°C
19/03/19 12:50 EGPH 191250Z 24014KT 9999 BKN018 11/08 Q1020 WSW (240°) 16.1mph 11°C 8°C
19/03/19 12:20 EGPH 191220Z 23016KT 9999 SCT017 11/08 Q1020 SW (230°) 18.4mph 11°C 8°C
19/03/19 11:50 EGPH 191150Z 24014KT 9999 SCT018 10/07 Q1020 WSW (240°) 16.1mph 10°C 7°C
19/03/19 11:20 EGPH 191120Z 24016KT 9999 BKN020 10/07 Q1020 WSW (240°) 18.4mph 10°C 7°C
19/03/19 10:50 EGPH 191050Z 24014KT 9999 BKN022 10/06 Q1020 WSW (240°) 16.1mph 10°C 6°C
19/03/19 10:20 EGPH 191020Z 25014KT 9999 BKN022 10/06 Q1020 WSW (250°) 16.1mph 10°C 6°C
19/03/19 09:50 EGPH 190950Z 24013KT 9999 FEW017 SCT032 09/07 Q1020 WSW (240°) 15.0mph 9°C 7°C
19/03/19 09:20 EGPH 190920Z 24011KT 9999 SCT017 SCT032 09/07 Q1020 WSW (240°) 12.7mph 9°C 7°C
19/03/19 08:20 EGPH 190820Z 21006KT 9999 -RA SCT017 BKN025 08/07 Q1020 -RA SSW (210°) 6.9mph 8°C 7°C
19/03/19 07:50 EGPH 190750Z 23008KT 9999 SCT008 BKN025 08/07 Q1020 SW (230°) 9.2mph 8°C 7°C
19/03/19 07:20 EGPH 190720Z 23010KT 9999 8000W VCSH BKN018 BKN035 08/07 Q1020 VCSH SW (230°) 11.5mph 8°C 7°C
19/03/19 06:50 EGPH 190650Z 22008KT 9999 SCT010 BKN025 08/07 Q1020 SW (220°) 9.2mph 8°C 7°C
19/03/19 05:50 EGPH 190550Z 25004KT 230V290 9999 FEW010 BKN039 07/06 Q1020 WSW (250°) 4.6mph 7°C 6°C
19/03/19 05:20 EGPH 190520Z 24007KT 9999 BKN039 07/06 Q1020 WSW (240°) 8.1mph 7°C 6°C
19/03/19 03:50 EGPH 190350Z 24006KT 9999 FEW023 OVC042 06/05 Q1020 WSW (240°) 6.9mph 6°C 5°C
19/03/19 03:20 EGPH 190320Z VRB02KT 9999 FEW027 BKN045 06/05 Q1020 N (0°) 2.3mph 6°C 5°C
19/03/19 02:50 EGPH 190250Z 23005KT 9999 BKN025 05/05 Q1020 SW (230°) 5.8mph 5°C 5°C
19/03/19 02:20 EGPH 190220Z 26004KT 9999 BKN023 05/05 Q1021 W (260°) 4.6mph 5°C 5°C
19/03/19 01:50 EGPH 190150Z VRB02KT 9999 SCT026 06/05 Q1021 N (0°) 2.3mph 6°C 5°C
19/03/19 00:50 EGPH 190050Z 24005KT 9999 BKN023 05/05 Q1021 WSW (240°) 5.8mph 5°C 5°C
19/03/19 00:20 EGPH 190020Z 26004KT 9999 FEW024 05/04 Q1021 W (260°) 4.6mph 5°C 4°C
18/03/19 23:50 EGPH 182350Z VRB03KT 9999 FEW030 06/05 Q1021 N (0°) 3.5mph 6°C 5°C
18/03/19 23:20 EGPH 182320Z 24004KT 9999 OVC022 06/05 Q1021 WSW (240°) 4.6mph 6°C 5°C
18/03/19 22:50 EGPH 182250Z 25004KT 9999 BKN024 05/04 Q1020 WSW (250°) 4.6mph 5°C 4°C
18/03/19 22:20 EGPH 182220Z 25004KT 9999 FEW027 05/04 Q1020 WSW (250°) 4.6mph 5°C 4°C
18/03/19 21:50 EGPH 182150Z 23005KT 9999 BKN029 06/05 Q1020 SW (230°) 5.8mph 6°C 5°C
18/03/19 21:20 EGPH 182120Z 23004KT 9999 BKN031 07/05 Q1020 SW (230°) 4.6mph 7°C 5°C
18/03/19 20:20 EGPH 182020Z 26004KT 9999 BKN029 08/05 Q1020 W (260°) 4.6mph 8°C 5°C
18/03/19 19:50 EGPH 181950Z 22006KT 9999 BKN025 08/05 Q1019 SW (220°) 6.9mph 8°C 5°C
18/03/19 19:20 EGPH 181920Z 21006KT 9999 BKN027 08/05 Q1019 SSW (210°) 6.9mph 8°C 5°C
18/03/19 18:50 EGPH 181850Z 23005KT 9999 BKN030 07/05 Q1019 SW (230°) 5.8mph 7°C 5°C
18/03/19 18:20 EGPH 181820Z 28003KT 9999 BKN030 08/05 Q1019 W (280°) 3.5mph 8°C 5°C
18/03/19 17:50 EGPH 181750Z 23006KT 9999 BKN030 08/05 Q1018 SW (230°) 6.9mph 8°C 5°C
18/03/19 17:20 EGPH 181720Z VRB03KT 9999 BKN028 08/05 Q1018 N (0°) 3.5mph 8°C 5°C
18/03/19 16:50 EGPH 181650Z 22005KT 9999 BKN027 09/04 Q1017 SW (220°) 5.8mph 9°C 4°C
18/03/19 16:20 EGPH 181620Z 24007KT 9999 BKN025 08/04 Q1017 WSW (240°) 8.1mph 8°C 4°C
18/03/19 15:50 EGPH 181550Z 26005KT 220V290 9999 BKN028 09/04 Q1017 W (260°) 5.8mph 9°C 4°C
18/03/19 15:20 EGPH 181520Z 24007KT 9999 BKN026 09/04 Q1017 WSW (240°) 8.1mph 9°C 4°C
18/03/19 14:50 EGPH 181450Z 25006KT 220V280 9999 BKN027 09/04 Q1017 WSW (250°) 6.9mph 9°C 4°C
18/03/19 14:20 EGPH 181420Z 25005KT 9999 BKN030 09/04 Q1017 WSW (250°) 5.8mph 9°C 4°C
18/03/19 13:50 EGPH 181350Z 23005KT 200V310 9999 BKN035 09/04 Q1016 SW (230°) 5.8mph 9°C 4°C
18/03/19 13:20 EGPH 181320Z 23007KT 9999 FEW023 BKN037 09/04 Q1016 SW (230°) 8.1mph 9°C 4°C
18/03/19 12:50 EGPH 181250Z 23007KT 190V300 9999 SCT024 09/04 Q1016 SW (230°) 8.1mph 9°C 4°C
18/03/19 12:20 EGPH 181220Z 25008KT 9999 BKN025 08/04 Q1016 WSW (250°) 9.2mph 8°C 4°C
18/03/19 11:50 EGPH 181150Z 27006KT 220V320 9999 BKN023 08/03 Q1016 W (270°) 6.9mph 8°C 3°C
18/03/19 11:20 EGPH 181120Z 23007KT 9999 BKN022 08/04 Q1016 SW (230°) 8.1mph 8°C 4°C
18/03/19 10:50 EGPH 181050Z 23009KT 9999 BKN022 07/03 Q1016 SW (230°) 10.4mph 7°C 3°C
18/03/19 10:20 EGPH 181020Z 22009KT 9999 SCT024 08/04 Q1016 SW (220°) 10.4mph 8°C 4°C
18/03/19 09:50 EGPH 180950Z 24008KT 9999 FEW018 SCT040 07/03 Q1016 WSW (240°) 9.2mph 7°C 3°C
18/03/19 08:50 EGPH 180850Z 25006KT 9999 FEW017 06/04 Q1015 WSW (250°) 6.9mph 6°C 4°C
18/03/19 08:20 EGPH 180820Z 25008KT CAVOK 05/03 Q1015 WSW (250°) 9.2mph 5°C 3°C
18/03/19 07:50 EGPH 180750Z 27003KT 9999 FEW044 04/02 Q1015 W (270°) 3.5mph 4°C 2°C
18/03/19 07:20 EGPH 180720Z VRB03KT CAVOK 03/02 Q1015 N (0°) 3.5mph 3°C 2°C
18/03/19 06:50 EGPH 180650Z VRB01KT CAVOK 02/01 Q1015 N (0°) 1.2mph 2°C 1°C
18/03/19 06:20 EGPH 180620Z VRB02KT CAVOK 01/M00 Q1014 N (0°) 2.3mph 1°C 0°C
18/03/19 05:50 EGPH 180550Z 30002KT CAVOK 01/M00 Q1014 WNW (300°) 2.3mph 1°C 0°C
18/03/19 05:20 EGPH 180520Z VRB02KT CAVOK 01/00 Q1014 N (0°) 2.3mph 1°C 0°C
18/03/19 04:50 EGPH 180450Z VRB02KT CAVOK 02/00 Q1014 N (0°) 2.3mph 2°C 0°C
18/03/19 00:20 EGPH 180020Z VRB03KT CAVOK 01/M02 Q1012 N (0°) 3.5mph 1°C -2°C
17/03/19 23:50 EGPH 172350Z 24007KT CAVOK 02/M02 Q1012 WSW (240°) 8.1mph 2°C -2°C
17/03/19 23:20 EGPH 172320Z 27007KT CAVOK 03/M02 Q1012 W (270°) 8.1mph 3°C -2°C
17/03/19 22:50 EGPH 172250Z 24007KT 210V290 CAVOK 04/M03 Q1011 WSW (240°) 8.1mph 4°C -3°C
17/03/19 22:20 EGPH 172220Z 29007KT CAVOK 04/M02 Q1011 WNW (290°) 8.1mph 4°C -2°C
17/03/19 21:50 EGPH 172150Z 28005KT CAVOK 05/M02 Q1011 W (280°) 5.8mph 5°C -2°C
17/03/19 21:20 EGPH 172120Z 27006KT CAVOK 04/M02 Q1010 W (270°) 6.9mph 4°C -2°C
17/03/19 20:50 EGPH 172050Z 24007KT CAVOK 03/M02 Q1010 WSW (240°) 8.1mph 3°C -2°C
17/03/19 20:20 EGPH 172020Z 23005KT 200V260 CAVOK 04/M02 Q1010 SW (230°) 5.8mph 4°C -2°C
17/03/19 19:50 EGPH 171950Z 29005KT 250V330 CAVOK 05/M02 Q1009 WNW (290°) 5.8mph 5°C -2°C
17/03/19 19:20 EGPH 171920Z 32006KT 280V350 9999 FEW046 06/M02 Q1008 NW (320°) 6.9mph 6°C -2°C
17/03/19 18:50 EGPH 171850Z 30005KT 270V340 9999 FEW046 06/M02 Q1008 WNW (300°) 5.8mph 6°C -2°C
17/03/19 18:20 EGPH 171820Z 30006KT 9999 FEW046 06/M01 Q1007 WNW (300°) 6.9mph 6°C -1°C
17/03/19 17:50 EGPH 171750Z 33008KT 270V010 9999 FEW046 07/M01 Q1006 NNW (330°) 9.2mph 7°C -1°C
17/03/19 17:20 EGPH 171720Z VRB03KT 9999 SCT044 07/02 Q1006 N (0°) 3.5mph 7°C 2°C
17/03/19 16:50 EGPH 171650Z 35005KT 310V030 9999 SCT040 08/01 Q1005 N (350°) 5.8mph 8°C 1°C
17/03/19 16:20 EGPH 171620Z 35005KT 9999 SCT043 08/01 Q1004 N (350°) 5.8mph 8°C 1°C
17/03/19 15:50 EGPH 171550Z 35005KT 300V040 9999 SCT038TCU 08/02 Q1003 N (350°) 5.8mph 8°C 2°C
17/03/19 15:20 EGPH 171520Z 31005KT 280V010 9999 VCSH FEW009 SCT036 08/03 Q1003 VCSH NW (310°) 5.8mph 8°C 3°C
17/03/19 14:50 EGPH 171450Z 33009KT 290V020 9999 SCT040 09/01 Q1002 NNW (330°) 10.4mph 9°C 1°C
17/03/19 14:20 EGPH 171420Z 33010KT 280V010 9999 SCT036 09/02 Q1001 NNW (330°) 11.5mph 9°C 2°C
17/03/19 13:50 EGPH 171350Z 29007KT 250V340 9999 BKN032 08/02 Q1000 WNW (290°) 8.1mph 8°C 2°C
17/03/19 12:50 EGPH 171250Z 27011KT 240V300 9999 BKN028 08/02 Q0998 W (270°) 12.7mph 8°C 2°C
17/03/19 12:20 EGPH 171220Z 27013KT 240V310 9999 SCT026 08/03 Q0998 W (270°) 15.0mph 8°C 3°C
17/03/19 11:50 EGPH 171150Z 27008KT 240V310 9999 SCT023 07/03 Q0997 W (270°) 9.2mph 7°C 3°C
17/03/19 10:50 EGPH 171050Z 27013KT 240V300 9999 SCT025 07/03 Q0996 W (270°) 15.0mph 7°C 3°C
17/03/19 10:20 EGPH 171020Z 26016G26KT 9999 SCT035 06/02 Q0996 W (260°) 18.4mph 29.9mph 6°C 2°C
17/03/19 09:50 EGPH 170950Z 25016KT 9999 SCT041 05/02 Q0995 WSW (250°) 18.4mph 5°C 2°C
17/03/19 09:20 EGPH 170920Z 25015KT 9999 SCT045 05/02 Q0995 WSW (250°) 17.3mph 5°C 2°C
17/03/19 08:50 EGPH 170850Z 25014KT 9999 FEW022 04/01 Q0994 WSW (250°) 16.1mph 4°C 1°C
17/03/19 07:50 EGPH 170750Z 23013KT 9999 FEW022 02/01 Q0994 SW (230°) 15.0mph 2°C 1°C
17/03/19 07:20 EGPH 170720Z 24013KT 9999 FEW020 02/00 Q0993 WSW (240°) 15.0mph 2°C 0°C
17/03/19 06:50 EGPH 170650Z 23013KT 9999 FEW015 02/00 Q0993 SW (230°) 15.0mph 2°C 0°C
17/03/19 06:20 EGPH 170620Z 24012KT CAVOK 02/M00 Q0992 WSW (240°) 13.8mph 2°C 0°C
17/03/19 05:50 EGPH 170550Z 24011KT CAVOK 02/M00 Q0992 WSW (240°) 12.7mph 2°C 0°C
17/03/19 04:50 EGPH 170450Z 23014KT 9999 FEW023 01/00 Q0991 SW (230°) 16.1mph 1°C 0°C
17/03/19 00:20 EGPH 170020Z 25010KT CAVOK 02/00 Q0989 WSW (250°) 11.5mph 2°C 0°C
16/03/19 23:50 EGPH 162350Z 25010KT CAVOK 02/00 Q0989 WSW (250°) 11.5mph 2°C 0°C
16/03/19 23:20 EGPH 162320Z 26010KT CAVOK 03/01 Q0989 W (260°) 11.5mph 3°C 1°C
16/03/19 22:50 EGPH 162250Z 25010KT CAVOK 02/01 Q0988 WSW (250°) 11.5mph 2°C 1°C
16/03/19 22:20 EGPH 162220Z 25009KT CAVOK 02/01 Q0988 WSW (250°) 10.4mph 2°C 1°C
16/03/19 21:50 EGPH 162150Z 25010KT CAVOK 02/01 Q0988 WSW (250°) 11.5mph 2°C 1°C
16/03/19 21:20 EGPH 162120Z 25010KT CAVOK 02/01 Q0987 WSW (250°) 11.5mph 2°C 1°C
16/03/19 20:50 EGPH 162050Z 25009KT CAVOK 02/01 Q0987 WSW (250°) 10.4mph 2°C 1°C
16/03/19 20:20 EGPH 162020Z 26008KT CAVOK 03/01 Q0987 W (260°) 9.2mph 3°C 1°C
16/03/19 19:50 EGPH 161950Z 27007KT 9999 FEW040 03/01 Q0986 W (270°) 8.1mph 3°C 1°C
16/03/19 19:20 EGPH 161920Z 27007KT 9999 -RA SCT041 03/01 Q0986 -RA W (270°) 8.1mph 3°C 1°C
16/03/19 18:50 EGPH 161850Z 28010KT 9999 -RA SCT041 03/02 Q0985 -RA W (280°) 11.5mph 3°C 2°C
16/03/19 18:20 EGPH 161820Z 28009KT 9999 -RA FEW016 BKN038 03/02 Q0984 -RA W (280°) 10.4mph 3°C 2°C
16/03/19 17:50 EGPH 161750Z 27010KT 9999 -RA FEW016 OVC036 02/02 Q0983 -RA W (270°) 11.5mph 2°C 2°C
16/03/19 17:20 EGPH 161720Z 27008KT 9000 -RA FEW006 BKN022 02/02 Q0983 -RA W (270°) 9.2mph 2°C 2°C
16/03/19 16:50 EGPH 161650Z 28008KT 250V320 8000 -RA FEW007 BKN016 02/02 Q0982 -RA W (280°) 9.2mph 2°C 2°C
16/03/19 16:20 EGPH 161620Z 30008KT 270V350 5000 -RADZ SCT004 OVC014 02/02 Q0981 REDZ -RA -DZ WNW (300°) 9.2mph 2°C 2°C
16/03/19 15:50 EGPH 161550Z 31005KT 260V340 2200 R06/1300 DZ BKN003 02/02 Q0981 DZ NW (310°) 5.8mph 2°C 2°C
16/03/19 15:20 EGPH 161520Z 32005KT 280V360 1700 R06/1200 DZ OVC004 03/02 Q0980 DZ NW (320°) 5.8mph 3°C 2°C
16/03/19 14:50 EGPH 161450Z VRB02KT 8000 BKN006TCU 03/03 Q0980 N (0°) 2.3mph 3°C 3°C
16/03/19 14:20 EGPH 161420Z 05004KT 010V090 6000 -RA BKN003TCU 03/03 Q0980 RERA -RA NE (50°) 4.6mph 3°C 3°C
16/03/19 13:50 EGPH 161350Z VRB03KT 3500 RA BR BKN003TCU 04/04 Q0981 RA BR N (0°) 3.5mph 4°C 4°C
16/03/19 13:20 EGPH 161320Z 05005KT 360V080 3000 R24/1200 RA BR OVC003 03/03 Q0981 RA BR NE (50°) 5.8mph 3°C 3°C
16/03/19 12:50 EGPH 161250Z 06008KT 3500 R06/1300 -RA BR BKN003TCU 03/03 Q0981 RERA -RA BR ENE (60°) 9.2mph 3°C 3°C
16/03/19 12:20 EGPH 161220Z 05010KT 2500 R06/1200 RA BR OVC003TCU 02/02 Q0982 RA BR NE (50°) 11.5mph 2°C 2°C
16/03/19 11:50 EGPH 161150Z 07010KT 2500 R06/1200 -RA BR OVC003 02/02 Q0983 -RA BR ENE (70°) 11.5mph 2°C 2°C
16/03/19 11:20 EGPH 161120Z 07010KT 4000 -RA OVC004TCU 01/01 Q0984 -RA ENE (70°) 11.5mph 1°C 1°C
16/03/19 10:50 EGPH 161050Z 07012KT 4500 -RASN BKN003TCU 01/01 Q0985 -RA -SN ENE (70°) 13.8mph 1°C 1°C
16/03/19 10:20 EGPH 161020Z 06012KT 4000 -RASN BKN003TCU 01/01 Q0986 -RA -SN ENE (60°) 13.8mph 1°C 1°C
16/03/19 09:50 EGPH 160950Z 06011KT 3700 R06/1100 -SN BKN003TCU 01/00 Q0987 -SN ENE (60°) 12.7mph 1°C 0°C
16/03/19 09:20 EGPH 160920Z 06011KT 2500 R06/1000 -SN BKN003 OVC012 01/00 Q0988 -SN ENE (60°) 12.7mph 1°C 0°C
16/03/19 08:50 EGPH 160850Z 06008KT 2500 R06/1200 -SN BKN003 OVC014 00/00 Q0989 -SN ENE (60°) 9.2mph 0°C 0°C
16/03/19 08:20 EGPH 160820Z 07008KT 3500 -SN BKN003 OVC014 01/00 Q0991 -SN ENE (70°) 9.2mph 1°C 0°C
16/03/19 07:50 EGPH 160750Z 06008KT 4000 -RASN BKN004 OVC012 01/00 Q0991 -RA -SN ENE (60°) 9.2mph 1°C 0°C
16/03/19 07:20 EGPH 160720Z 08007KT 4000 -RASN FEW005 OVC016 01/01 Q0993 RERA -RA -SN E (80°) 8.1mph 1°C 1°C